Time,TemperatureF,DewpointF,PressureIn,WindDirection,WindDirectionDegrees,WindSpeedMPH,WindSpeedGustMPH,Humidity,HourlyPrecipIn,Conditions,Clouds,dailyrainin,SoftwareType,DateUTC
2013-08-09 00:01:00,56.5,51.1,29.40,SE,135,3.5,3.8,82,0.00,RA,,0.00,WeatherDisplay:10.37,2013-08-08 23:01:00,
2013-08-09 00:06:00,56.5,51.1,29.40,SE,135,1.2,1.2,82,0.00,RA,,0.00,WeatherDisplay:10.37,2013-08-08 23:06:00,
2013-08-09 00:12:00,56.5,51.1,29.40,SSW,202,4.6,4.6,82,0.00,CLR,,0.00,WeatherDisplay:10.37,2013-08-08 23:12:00,
2013-08-09 00:17:00,56.5,51.4,29.39,South,180,6.9,6.9,83,0.00,CLR,,0.00,WeatherDisplay:10.37,2013-08-08 23:17:00,
2013-08-09 00:22:00,56.5,51.7,29.39,SE,135,2.3,3.1,84,0.00,CLR,,0.00,WeatherDisplay:10.37,2013-08-08 23:22:00,
2013-08-09 00:27:00,56.5,51.7,29.39,SSE,158,8.1,8.1,84,0.00,CLR,,0.00,WeatherDisplay:10.37,2013-08-08 23:27:00,
2013-08-09 00:33:00,56.5,51.7,29.39,SSW,202,11.5,11.5,84,0.00,CLR,,0.00,WeatherDisplay:10.37,2013-08-08 23:33:00,
2013-08-09 00:38:00,56.5,52.0,29.39,South,180,4.6,5.6,85,0.00,CLR,,0.00,WeatherDisplay:10.37,2013-08-08 23:38:00,
2013-08-09 00:43:00,56.5,52.0,29.39,SSW,202,11.5,11.5,85,0.00,CLR,,0.00,WeatherDisplay:10.37,2013-08-08 23:43:00,
2013-08-09 00:48:00,56.8,52.4,29.39,South,180,2.3,3.5,85,0.00,CLR,,0.00,WeatherDisplay:10.37,2013-08-08 23:48:00,
2013-08-09 00:53:00,56.8,52.4,29.39,SE,135,6.9,6.9,85,0.00,CLR,,0.00,WeatherDisplay:10.37,2013-08-08 23:53:00,
2013-08-09 00:58:00,56.8,52.4,29.38,SSW,202,5.8,5.8,85,0.00,CLR,,0.00,WeatherDisplay:10.37,2013-08-08 23:58:00,
2013-08-09 01:03:00,57.0,52.9,29.38,SSW,202,3.5,3.5,86,0.00,CLR,,0.00,WeatherDisplay:10.37,2013-08-09 00:03:00,
2013-08-09 01:09:00,57.0,52.9,29.38,SSE,158,5.6,5.6,86,0.00,CLR,,0.00,WeatherDisplay:10.37,2013-08-09 00:09:00,
2013-08-09 01:14:00,57.0,52.9,29.38,SSE,158,3.5,4.4,86,0.00,CLR,,0.00,WeatherDisplay:10.37,2013-08-09 00:14:00,
2013-08-09 01:19:00,57.0,52.9,29.38,SSE,158,5.8,5.8,86,0.00,CLR,,0.00,WeatherDisplay:10.37,2013-08-09 00:19:00,
2013-08-09 01:24:00,57.0,52.9,29.37,South,180,4.6,4.6,86,0.00,CLR,,0.00,WeatherDisplay:10.37,2013-08-09 00:24:00,
2013-08-09 01:29:00,57.0,52.9,29.37,SE,135,8.1,8.1,86,0.00,CLR,,0.00,WeatherDisplay:10.37,2013-08-09 00:29:00,
2013-08-09 01:34:00,57.0,52.9,29.37,South,180,2.3,2.8,86,0.00,CLR,,0.00,WeatherDisplay:10.37,2013-08-09 00:34:00,
2013-08-09 01:40:00,57.0,52.9,29.37,SSE,158,3.5,4.0,86,0.00,CLR,,0.00,WeatherDisplay:10.37,2013-08-09 00:40:00,
2013-08-09 01:46:00,57.0,52.9,29.37,SSE,158,2.3,2.3,86,0.00,CLR,,0.00,WeatherDisplay:10.37,2013-08-09 00:46:00,
2013-08-09 01:51:00,57.0,52.9,29.37,South,180,2.3,2.3,86,0.00,CLR,,0.00,WeatherDisplay:10.37,2013-08-09 00:51:00,
2013-08-09 01:56:00,57.0,52.9,29.37,SSE,158,2.3,2.7,86,0.00,CLR,,0.00,WeatherDisplay:10.37,2013-08-09 00:56:00,
2013-08-09 02:01:00,57.0,52.9,29.37,SSE,158,2.3,2.7,86,0.00,CLR,,0.00,WeatherDisplay:10.37,2013-08-09 01:01:00,
2013-08-09 02:07:00,57.0,52.9,29.37,SSE,158,2.3,2.3,86,0.00,CLR,,0.00,WeatherDisplay:10.37,2013-08-09 01:07:00,
2013-08-09 02:12:00,57.0,52.9,29.37,SSE,158,2.3,2.3,86,0.00,CLR,,0.00,WeatherDisplay:10.37,2013-08-09 01:12:00,
2013-08-09 02:17:00,57.0,52.9,29.37,SSE,158,0.0,0.0,86,0.00,CLR,,0.00,WeatherDisplay:10.37,2013-08-09 01:17:00,
2013-08-09 02:22:00,57.0,52.9,29.37,SSW,202,2.3,2.3,86,0.00,CLR,,0.00,WeatherDisplay:10.37,2013-08-09 01:22:00,
2013-08-09 02:27:00,57.0,52.9,29.37,SSW,202,0.0,0.0,86,0.00,CLR,,0.00,WeatherDisplay:10.37,2013-08-09 01:27:00,
2013-08-09 02:33:00,57.0,52.9,29.37,SSE,158,2.3,2.3,86,0.00,CLR,,0.00,WeatherDisplay:10.37,2013-08-09 01:33:00,
2013-08-09 02:39:00,57.0,52.9,29.37,SSE,158,2.3,2.3,86,0.00,CLR,,0.00,WeatherDisplay:10.37,2013-08-09 01:39:00,
2013-08-09 02:44:00,57.0,52.9,29.37,SSW,202,3.6,3.6,86,0.00,CLR,,0.00,WeatherDisplay:10.37,2013-08-09 01:44:00,
2013-08-09 02:49:00,57.0,52.9,29.37,SSE,158,2.3,2.3,86,0.00,CLR,,0.00,WeatherDisplay:10.37,2013-08-09 01:49:00,
2013-08-09 02:54:00,57.0,52.9,29.37,SSE,158,0.0,0.0,86,0.00,CLR,,0.00,WeatherDisplay:10.37,2013-08-09 01:54:00,
2013-08-09 02:59:00,57.2,53.0,29.37,South,180,1.2,1.4,86,0.00,CLR,,0.00,WeatherDisplay:10.37,2013-08-09 01:59:00,
2013-08-09 03:04:00,57.2,53.4,29.37,SSE,158,3.5,3.5,87,0.00,CLR,,0.00,WeatherDisplay:10.37,2013-08-09 02:04:00,
2013-08-09 03:10:00,57.2,53.4,29.37,SE,135,3.5,3.5,87,0.00,CLR,,0.00,WeatherDisplay:10.37,2013-08-09 02:10:00,
2013-08-09 03:15:00,57.4,53.5,29.37,SSE,158,3.5,3.5,87,0.00,CLR,,0.00,WeatherDisplay:10.37,2013-08-09 02:15:00,
2013-08-09 03:20:00,57.4,53.5,29.37,SSE,158,2.3,3.6,87,0.00,CLR,,0.00,WeatherDisplay:10.37,2013-08-09 02:20:00,
2013-08-09 03:25:00,57.4,53.5,29.37,SSE,158,4.6,5.1,87,0.00,CLR,,0.00,WeatherDisplay:10.37,2013-08-09 02:25:00,
2013-08-09 03:31:00,57.4,53.5,29.37,SSE,158,3.5,3.5,87,0.00,CLR,,0.00,WeatherDisplay:10.37,2013-08-09 02:31:00,
2013-08-09 03:36:00,57.4,53.5,29.37,SSE,158,3.5,3.5,87,0.00,CLR,,0.00,WeatherDisplay:10.37,2013-08-09 02:36:00,
2013-08-09 03:41:00,57.4,53.5,29.37,South,180,3.5,3.5,87,0.00,CLR,,0.00,WeatherDisplay:10.37,2013-08-09 02:41:00,
2013-08-09 03:47:00,57.4,53.9,29.37,SSW,202,5.8,5.8,88,0.00,CLR,,0.00,WeatherDisplay:10.37,2013-08-09 02:47:00,
2013-08-09 03:52:00,57.4,54.2,29.37,SSE,158,8.1,8.1,89,0.02,RA,,0.02,WeatherDisplay:10.37,2013-08-09 02:52:00,
2013-08-09 03:57:00,57.4,54.2,29.37,SSE,158,9.2,9.2,89,0.02,RA,,0.02,WeatherDisplay:10.37,2013-08-09 02:57:00,
2013-08-09 04:02:00,57.2,54.0,29.36,SSE,158,6.9,6.9,89,0.02,,,0.02,WeatherDisplay:10.37,2013-08-09 03:02:00,
2013-08-09 04:08:00,57.2,54.0,29.36,SSW,202,3.5,3.5,89,0.02,CLR,,0.02,WeatherDisplay:10.37,2013-08-09 03:08:00,
2013-08-09 04:13:00,57.0,53.8,29.36,SE,135,3.5,4.5,89,0.02,CLR,,0.02,WeatherDisplay:10.37,2013-08-09 03:13:00,
2013-08-09 04:18:00,57.0,53.8,29.36,South,180,2.3,2.5,89,0.02,CLR,,0.02,WeatherDisplay:10.37,2013-08-09 03:18:00,
2013-08-09 04:24:00,57.0,53.8,29.36,SSW,202,2.3,2.7,89,0.02,CLR,,0.02,WeatherDisplay:10.37,2013-08-09 03:24:00,
2013-08-09 04:29:00,57.0,53.8,29.36,South,180,4.6,4.6,89,0.02,CLR,,0.02,WeatherDisplay:10.37,2013-08-09 03:29:00,
2013-08-09 04:34:00,57.0,53.8,29.37,SSE,158,6.9,6.9,89,0.02,CLR,,0.02,WeatherDisplay:10.37,2013-08-09 03:34:00,
2013-08-09 04:39:00,57.0,53.8,29.37,South,180,2.3,6.7,89,0.02,CLR,,0.02,WeatherDisplay:10.37,2013-08-09 03:39:00,
2013-08-09 04:44:00,57.0,53.8,29.36,SSW,202,3.5,3.9,89,0.02,CLR,,0.02,WeatherDisplay:10.37,2013-08-09 03:44:00,
2013-08-09 04:49:00,57.0,53.8,29.37,South,180,0.0,1.6,89,0.02,CLR,,0.02,WeatherDisplay:10.37,2013-08-09 03:49:00,
2013-08-09 04:54:00,57.0,53.8,29.37,South,180,2.3,2.5,89,0.00,CLR,,0.02,WeatherDisplay:10.37,2013-08-09 03:54:00,
2013-08-09 05:01:00,56.8,53.6,29.37,South,180,3.5,4.9,89,0.00,CLR,,0.02,WeatherDisplay:10.37,2013-08-09 04:01:00,
2013-08-09 05:02:00,56.8,53.6,29.37,South,180,3.5,4.9,89,0.00,CLR,,0.02,WeatherDisplay:10.37,2013-08-09 04:02:00,
2013-08-09 05:07:00,56.8,53.6,29.36,SSE,158,2.3,2.3,89,0.00,CLR,,0.02,WeatherDisplay:10.37,2013-08-09 04:07:00,
2013-08-09 05:12:00,56.8,53.6,29.36,SSE,158,2.3,2.3,89,0.00,CLR,,0.02,WeatherDisplay:10.37,2013-08-09 04:12:00,
2013-08-09 05:17:00,56.8,53.6,29.36,SSE,158,2.3,4.7,89,0.00,CLR,,0.02,WeatherDisplay:10.37,2013-08-09 04:17:00,
2013-08-09 05:22:00,56.8,53.6,29.35,SSW,202,3.5,3.5,89,0.00,CLR,,0.02,WeatherDisplay:10.37,2013-08-09 04:22:00,
2013-08-09 05:27:00,56.8,53.6,29.35,SSW,202,2.3,2.7,89,0.00,CLR,,0.02,WeatherDisplay:10.37,2013-08-09 04:27:00,
2013-08-09 05:32:00,56.8,53.9,29.35,SE,135,3.5,3.5,90,0.00,CLR,,0.02,WeatherDisplay:10.37,2013-08-09 04:32:00,
2013-08-09 05:37:00,56.8,53.9,29.35,SSW,202,0.0,1.8,90,0.00,CLR,,0.02,WeatherDisplay:10.37,2013-08-09 04:37:00,
2013-08-09 05:42:00,56.8,53.9,29.36,SSE,158,10.4,10.4,90,0.00,CLR,,0.02,WeatherDisplay:10.37,2013-08-09 04:42:00,
2013-08-09 05:47:00,56.8,53.9,29.35,WSW,248,2.3,2.6,90,0.00,CLR,,0.02,WeatherDisplay:10.37,2013-08-09 04:47:00,
2013-08-09 05:52:00,56.8,53.9,29.35,SSW,202,2.3,2.4,90,0.00,CLR,,0.02,WeatherDisplay:10.37,2013-08-09 04:52:00,
2013-08-09 05:57:00,56.8,53.9,29.36,SSW,202,8.1,8.1,90,0.00,CLR,,0.02,WeatherDisplay:10.37,2013-08-09 04:57:00,
2013-08-09 06:02:00,56.8,53.9,29.36,SW,225,3.5,5.9,90,0.00,CLR,,0.02,WeatherDisplay:10.37,2013-08-09 05:02:00,
2013-08-09 06:07:00,56.8,53.9,29.36,WSW,248,2.3,2.8,90,0.00,CLR,,0.02,WeatherDisplay:10.37,2013-08-09 05:07:00,
2013-08-09 06:12:00,56.8,53.9,29.36,SE,135,3.5,3.9,90,0.00,CLR,,0.02,WeatherDisplay:10.37,2013-08-09 05:12:00,
2013-08-09 06:17:00,56.8,53.9,29.37,West,270,3.5,3.5,90,0.00,CLR,,0.02,WeatherDisplay:10.37,2013-08-09 05:17:00,
2013-08-09 06:22:00,56.8,53.9,29.37,WSW,248,5.8,6.0,90,0.00,CLR,,0.02,WeatherDisplay:10.37,2013-08-09 05:22:00,
2013-08-09 06:27:00,56.8,53.9,29.37,SW,225,2.3,5.5,90,0.00,CLR,,0.02,WeatherDisplay:10.37,2013-08-09 05:27:00,
2013-08-09 06:32:00,56.8,53.9,29.37,WSW,248,9.2,9.2,90,0.00,CLR,,0.02,WeatherDisplay:10.37,2013-08-09 05:32:00,
2013-08-09 06:37:00,56.8,53.9,29.37,WSW,248,4.6,4.6,90,0.00,CLR,,0.02,WeatherDisplay:10.37,2013-08-09 05:37:00,
2013-08-09 06:42:00,56.8,53.9,29.37,WSW,248,5.8,5.8,90,0.00,CLR,,0.02,WeatherDisplay:10.37,2013-08-09 05:42:00,
2013-08-09 06:47:00,56.8,53.9,29.37,SW,225,8.1,8.1,90,0.00,CLR,,0.02,WeatherDisplay:10.37,2013-08-09 05:47:00,
2013-08-09 06:52:00,56.8,53.9,29.37,WSW,248,2.3,2.5,90,0.00,CLR,,0.02,WeatherDisplay:10.37,2013-08-09 05:52:00,
2013-08-09 06:57:00,56.7,53.8,29.38,SSE,158,3.5,3.9,90,0.00,CLR,,0.02,WeatherDisplay:10.37,2013-08-09 05:57:00,
2013-08-09 07:02:00,56.5,53.6,29.38,West,270,8.1,8.1,90,0.00,CLR,,0.02,WeatherDisplay:10.37,2013-08-09 06:02:00,
2013-08-09 07:07:00,56.5,53.6,29.38,West,270,4.6,5.0,90,0.00,CLR,,0.02,WeatherDisplay:10.37,2013-08-09 06:07:00,
2013-08-09 07:12:00,56.5,53.6,29.39,SW,225,5.8,5.8,90,0.00,CLR,,0.02,WeatherDisplay:10.37,2013-08-09 06:12:00,
2013-08-09 07:17:00,56.5,53.6,29.39,WSW,248,2.3,2.3,90,0.00,CLR,,0.02,WeatherDisplay:10.37,2013-08-09 06:17:00,
2013-08-09 07:22:00,56.5,53.6,29.39,West,270,6.9,6.9,90,0.00,CLR,,0.02,WeatherDisplay:10.37,2013-08-09 06:22:00,
2013-08-09 07:27:00,56.5,53.6,29.39,WNW,292,0.0,5.4,90,0.00,CLR,,0.02,WeatherDisplay:10.37,2013-08-09 06:27:00,
2013-08-09 07:32:00,56.5,53.6,29.39,South,180,4.6,4.6,90,0.00,CLR,,0.02,WeatherDisplay:10.37,2013-08-09 06:32:00,
2013-08-09 07:37:00,56.5,53.6,29.39,WSW,248,2.3,6.0,90,0.00,CLR,,0.02,WeatherDisplay:10.37,2013-08-09 06:37:00,
2013-08-09 07:42:00,56.5,53.6,29.39,SSW,202,2.3,2.3,90,0.00,CLR,,0.02,WeatherDisplay:10.37,2013-08-09 06:42:00,
2013-08-09 07:47:00,56.5,53.6,29.39,SW,225,4.6,7.0,90,0.00,CLR,,0.02,WeatherDisplay:10.37,2013-08-09 06:47:00,
2013-08-09 07:52:00,56.5,53.6,29.39,North,0,4.6,5.1,90,0.00,CLR,,0.02,WeatherDisplay:10.37,2013-08-09 06:52:00,
2013-08-09 07:57:00,56.5,53.6,29.39,NW,315,2.3,3.6,90,0.00,CLR,,0.02,WeatherDisplay:10.37,2013-08-09 06:57:00,
2013-08-09 08:02:00,56.7,53.8,29.40,West,270,2.3,2.3,90,0.00,CLR,,0.02,WeatherDisplay:10.37,2013-08-09 07:02:00,
2013-08-09 08:07:00,56.8,53.9,29.40,WSW,248,5.8,5.8,90,0.00,CLR,,0.02,WeatherDisplay:10.37,2013-08-09 07:07:00,
2013-08-09 08:12:00,56.8,53.9,29.41,West,270,6.9,6.9,90,0.00,CLR,,0.02,WeatherDisplay:10.37,2013-08-09 07:12:00,
2013-08-09 08:17:00,57.0,54.1,29.40,West,270,2.3,8.2,90,0.00,CLR,,0.02,WeatherDisplay:10.37,2013-08-09 07:17:00,
2013-08-09 08:22:00,57.0,54.1,29.41,SSW,202,4.6,4.7,90,0.00,CLR,,0.02,WeatherDisplay:10.37,2013-08-09 07:22:00,
2013-08-09 08:27:00,57.0,54.1,29.41,West,270,2.3,3.1,90,0.00,CLR,,0.02,WeatherDisplay:10.37,2013-08-09 07:27:00,
2013-08-09 08:32:00,57.2,54.3,29.41,SE,135,4.6,4.8,90,0.00,CLR,,0.02,WeatherDisplay:10.37,2013-08-09 07:32:00,
2013-08-09 08:37:00,57.2,54.3,29.41,West,270,6.9,6.9,90,0.00,CLR,,0.02,WeatherDisplay:10.37,2013-08-09 07:37:00,
2013-08-09 08:42:00,57.4,54.5,29.41,WSW,248,9.2,9.2,90,0.00,CLR,,0.02,WeatherDisplay:10.37,2013-08-09 07:42:00,
2013-08-09 08:47:00,57.4,54.5,29.41,West,270,4.6,5.1,90,0.00,CLR,,0.02,WeatherDisplay:10.37,2013-08-09 07:47:00,
2013-08-09 08:52:00,57.4,54.5,29.42,SW,225,2.3,2.3,90,0.00,CLR,,0.02,WeatherDisplay:10.37,2013-08-09 07:52:00,
2013-08-09 08:57:00,57.4,54.5,29.42,SE,135,2.3,8.0,90,0.00,CLR,,0.02,WeatherDisplay:10.37,2013-08-09 07:57:00,
2013-08-09 09:02:00,57.6,54.6,29.42,WSW,248,11.5,11.5,90,0.00,CLR,,0.02,WeatherDisplay:10.37,2013-08-09 08:02:00,
2013-08-09 09:07:00,57.4,54.5,29.42,West,270,6.9,6.9,90,0.00,CLR,,0.02,WeatherDisplay:10.37,2013-08-09 08:07:00,
2013-08-09 09:12:00,57.4,54.5,29.42,SW,225,5.8,5.8,90,0.00,CLR,,0.02,WeatherDisplay:10.37,2013-08-09 08:12:00,
2013-08-09 09:17:00,57.4,54.5,29.43,WSW,248,3.5,6.0,90,0.00,CLR,,0.02,WeatherDisplay:10.37,2013-08-09 08:17:00,
2013-08-09 09:22:00,57.4,54.5,29.43,West,270,5.8,6.3,90,0.02,RA,,0.04,WeatherDisplay:10.37,2013-08-09 08:22:00,
2013-08-09 09:27:00,57.4,54.5,29.43,West,270,5.8,5.8,90,0.02,RA,,0.04,WeatherDisplay:10.37,2013-08-09 08:27:00,
2013-08-09 09:32:00,57.0,54.1,29.43,WNW,292,6.9,6.9,90,0.02,CLR,,0.04,WeatherDisplay:10.37,2013-08-09 08:32:00,
2013-08-09 09:37:00,57.0,54.1,29.43,SW,225,1.2,4.3,90,0.02,CLR,,0.04,WeatherDisplay:10.37,2013-08-09 08:37:00,
2013-08-09 09:42:00,57.0,54.1,29.44,WSW,248,6.9,6.9,90,0.02,CLR,,0.04,WeatherDisplay:10.37,2013-08-09 08:42:00,
2013-08-09 09:47:00,57.0,54.1,29.44,WSW,248,4.6,5.3,90,0.02,CLR,,0.04,WeatherDisplay:10.37,2013-08-09 08:47:00,
2013-08-09 09:52:00,57.4,54.5,29.44,SW,225,13.8,13.8,90,0.02,CLR,,0.04,WeatherDisplay:10.37,2013-08-09 08:52:00,
2013-08-09 09:57:00,57.4,54.5,29.44,NW,315,3.5,5.3,90,0.02,CLR,,0.04,WeatherDisplay:10.37,2013-08-09 08:57:00,
2013-08-09 10:02:00,57.4,54.5,29.44,SE,135,8.1,8.1,90,0.02,CLR,,0.04,WeatherDisplay:10.37,2013-08-09 09:02:00,
2013-08-09 10:07:00,57.6,54.6,29.44,WSW,248,5.8,5.8,90,0.02,CLR,,0.04,WeatherDisplay:10.37,2013-08-09 09:07:00,
2013-08-09 10:12:00,57.7,54.8,29.44,WSW,248,5.8,5.8,90,0.02,CLR,,0.04,WeatherDisplay:10.37,2013-08-09 09:12:00,
2013-08-09 10:17:00,57.9,55.0,29.44,West,270,3.5,3.5,90,0.02,CLR,,0.04,WeatherDisplay:10.37,2013-08-09 09:17:00,
2013-08-09 10:22:00,57.9,54.7,29.44,West,270,5.8,5.8,89,0.00,CLR,,0.04,WeatherDisplay:10.37,2013-08-09 09:22:00,
2013-08-09 10:27:00,57.9,54.7,29.45,SW,225,3.5,5.4,89,0.00,CLR,,0.04,WeatherDisplay:10.37,2013-08-09 09:27:00,
2013-08-09 10:32:00,57.9,54.7,29.44,SW,225,6.9,6.9,89,0.00,CLR,,0.04,WeatherDisplay:10.37,2013-08-09 09:32:00,
2013-08-09 10:37:00,57.9,54.7,29.44,West,270,3.5,3.5,89,0.00,CLR,,0.04,WeatherDisplay:10.37,2013-08-09 09:37:00,
2013-08-09 10:42:00,58.1,54.9,29.45,West,270,8.1,8.1,89,0.00,CLR,,0.04,WeatherDisplay:10.37,2013-08-09 09:42:00,
2013-08-09 10:47:00,58.3,55.1,29.45,WSW,248,3.5,4.4,89,0.00,CLR,,0.04,WeatherDisplay:10.37,2013-08-09 09:47:00,
2013-08-09 10:52:00,58.5,54.9,29.45,West,270,4.6,4.6,88,0.00,CLR,,0.04,WeatherDisplay:10.37,2013-08-09 09:52:00,
2013-08-09 10:57:00,58.5,54.9,29.45,WNW,292,8.1,8.1,88,0.00,CLR,,0.04,WeatherDisplay:10.37,2013-08-09 09:57:00,
2013-08-09 11:02:00,58.6,55.1,29.46,WSW,248,4.6,4.6,88,0.00,CLR,,0.04,WeatherDisplay:10.37,2013-08-09 10:02:00,
2013-08-09 11:07:00,58.8,55.3,29.46,WSW,248,6.9,6.9,88,0.00,CLR,,0.04,WeatherDisplay:10.37,2013-08-09 10:07:00,
2013-08-09 11:12:00,59.2,55.6,29.46,WNW,292,5.8,5.9,88,0.00,CLR,,0.04,WeatherDisplay:10.37,2013-08-09 10:12:00,
2013-08-09 11:17:00,59.2,55.3,29.46,WSW,248,5.8,5.8,87,0.00,CLR,,0.04,WeatherDisplay:10.37,2013-08-09 10:17:00,
2013-08-09 11:22:00,59.4,55.5,29.46,WSW,248,2.3,2.3,87,0.00,CLR,,0.04,WeatherDisplay:10.37,2013-08-09 10:22:00,
2013-08-09 11:27:00,59.5,55.7,29.46,WSW,248,8.1,8.1,87,0.00,CLR,,0.04,WeatherDisplay:10.37,2013-08-09 10:27:00,
2013-08-09 11:32:00,59.5,55.7,29.46,NW,315,5.8,5.8,87,0.00,CLR,,0.04,WeatherDisplay:10.37,2013-08-09 10:32:00,
2013-08-09 11:37:00,59.5,55.7,29.46,WSW,248,4.6,4.6,87,0.00,CLR,,0.04,WeatherDisplay:10.37,2013-08-09 10:37:00,
2013-08-09 11:42:00,59.9,55.7,29.46,West,270,9.2,9.2,86,0.00,CLR,,0.04,WeatherDisplay:10.37,2013-08-09 10:42:00,
2013-08-09 11:47:00,60.1,55.9,29.46,West,270,12.7,12.7,86,0.00,CLR,,0.04,WeatherDisplay:10.37,2013-08-09 10:47:00,
2013-08-09 11:52:00,60.1,55.9,29.46,WNW,292,8.1,8.1,86,0.00,CLR,,0.04,WeatherDisplay:10.37,2013-08-09 10:52:00,
2013-08-09 11:57:00,60.1,55.9,29.46,WNW,292,2.3,2.3,86,0.00,CLR,,0.04,WeatherDisplay:10.37,2013-08-09 10:57:00,
2013-08-09 12:02:00,60.1,55.6,29.46,SW,225,8.1,8.1,85,0.00,CLR,,0.04,WeatherDisplay:10.37,2013-08-09 11:02:00,
2013-08-09 12:07:00,60.1,55.2,29.47,WSW,248,3.5,5.5,84,0.00,CLR,,0.04,WeatherDisplay:10.37,2013-08-09 11:07:00,
2013-08-09 12:12:00,60.1,55.2,29.47,South,180,1.2,2.4,84,0.00,CLR,,0.04,WeatherDisplay:10.37,2013-08-09 11:12:00,
2013-08-09 12:17:00,60.4,55.6,29.47,SW,225,11.5,11.5,84,0.00,CLR,,0.04,WeatherDisplay:10.37,2013-08-09 11:17:00,
2013-08-09 12:22:00,60.4,55.6,29.47,West,270,11.5,11.5,84,0.00,CLR,,0.04,WeatherDisplay:10.37,2013-08-09 11:22:00,
2013-08-09 12:27:00,60.4,55.6,29.47,WSW,248,9.2,11.1,84,0.00,CLR,,0.04,WeatherDisplay:10.37,2013-08-09 11:27:00,
2013-08-09 12:32:00,60.6,55.8,29.48,WSW,248,4.6,4.6,84,0.00,CLR,,0.04,WeatherDisplay:10.37,2013-08-09 11:32:00,
2013-08-09 12:37:00,60.6,55.4,29.47,WNW,292,6.9,6.9,83,0.00,CLR,,0.04,WeatherDisplay:10.37,2013-08-09 11:37:00,
2013-08-09 12:42:00,61.0,55.8,29.47,WSW,248,8.1,8.1,83,0.00,CLR,,0.04,WeatherDisplay:10.37,2013-08-09 11:42:00,
2013-08-09 12:47:00,61.0,55.8,29.47,SW,225,5.8,5.8,83,0.00,CLR,,0.04,WeatherDisplay:10.37,2013-08-09 11:47:00,
2013-08-09 12:52:00,61.0,55.8,29.47,SSW,202,6.9,6.9,83,0.00,CLR,,0.04,WeatherDisplay:10.37,2013-08-09 11:52:00,
2013-08-09 12:57:00,61.0,55.8,29.47,WNW,292,10.4,10.5,83,0.00,CLR,,0.04,WeatherDisplay:10.37,2013-08-09 11:57:00,
2013-08-09 13:02:00,61.2,55.6,29.47,South,180,2.3,7.6,82,0.00,CLR,,0.04,WeatherDisplay:10.37,2013-08-09 12:02:00,
2013-08-09 13:07:00,61.0,55.1,29.48,NW,315,17.3,17.3,81,0.00,CLR,,0.04,WeatherDisplay:10.37,2013-08-09 12:07:00,
2013-08-09 13:12:00,61.0,55.1,29.48,West,270,9.2,9.2,81,0.00,CLR,,0.04,WeatherDisplay:10.37,2013-08-09 12:12:00,
2013-08-09 13:17:00,61.0,55.1,29.48,SW,225,6.9,13.4,81,0.00,CLR,,0.04,WeatherDisplay:10.37,2013-08-09 12:17:00,
2013-08-09 13:22:00,60.6,54.8,29.48,SW,225,8.1,8.1,81,0.00,CLR,,0.04,WeatherDisplay:10.37,2013-08-09 12:22:00,
2013-08-09 13:27:00,60.6,54.8,29.48,SSW,202,6.9,6.9,81,0.00,CLR,,0.04,WeatherDisplay:10.37,2013-08-09 12:27:00,
2013-08-09 13:32:00,60.6,54.8,29.48,West,270,5.8,5.8,81,0.00,CLR,,0.04,WeatherDisplay:10.37,2013-08-09 12:32:00,
2013-08-09 13:37:00,60.6,54.4,29.49,WNW,292,4.6,4.6,80,0.00,CLR,,0.04,WeatherDisplay:10.37,2013-08-09 12:37:00,
2013-08-09 13:42:00,60.6,54.8,29.49,WNW,292,17.3,17.3,81,0.00,CLR,,0.04,WeatherDisplay:10.37,2013-08-09 12:42:00,
2013-08-09 13:47:00,60.4,54.2,29.49,WSW,248,6.9,14.2,80,0.00,CLR,,0.04,WeatherDisplay:10.37,2013-08-09 12:47:00,
2013-08-09 13:52:00,60.4,54.2,29.49,SW,225,19.6,19.6,80,0.00,CLR,,0.04,WeatherDisplay:10.37,2013-08-09 12:52:00,
2013-08-09 13:57:00,60.4,54.2,29.49,WNW,292,6.9,16.9,80,0.00,CLR,,0.04,WeatherDisplay:10.37,2013-08-09 12:57:00,
2013-08-09 14:02:00,60.4,54.2,29.50,WSW,248,10.4,10.4,80,0.00,CLR,,0.04,WeatherDisplay:10.37,2013-08-09 13:02:00,
2013-08-09 14:07:00,60.4,54.2,29.50,SW,225,11.5,11.5,80,0.00,CLR,,0.04,WeatherDisplay:10.37,2013-08-09 13:07:00,
2013-08-09 14:12:00,60.4,53.9,29.50,NW,315,11.5,11.5,79,0.00,CLR,,0.04,WeatherDisplay:10.37,2013-08-09 13:12:00,
2013-08-09 14:17:00,60.6,54.1,29.50,NNW,338,4.6,5.9,79,0.00,CLR,,0.04,WeatherDisplay:10.37,2013-08-09 13:17:00,
2013-08-09 14:22:00,60.6,54.1,29.50,West,270,8.1,8.1,79,0.00,CLR,,0.04,WeatherDisplay:10.37,2013-08-09 13:22:00,
2013-08-09 14:27:00,60.6,54.1,29.50,SE,135,5.8,6.0,79,0.00,CLR,,0.04,WeatherDisplay:10.37,2013-08-09 13:27:00,
2013-08-09 14:32:00,60.8,53.9,29.51,West,270,10.4,10.4,78,0.00,CLR,,0.04,WeatherDisplay:10.37,2013-08-09 13:32:00,
2013-08-09 14:37:00,60.6,53.4,29.51,West,270,6.9,6.9,77,0.00,CLR,,0.04,WeatherDisplay:10.37,2013-08-09 13:37:00,
2013-08-09 14:42:00,60.6,53.4,29.51,WSW,248,8.1,8.1,77,0.00,CLR,,0.04,WeatherDisplay:10.37,2013-08-09 13:42:00,
2013-08-09 14:47:00,60.6,53.4,29.51,West,270,11.5,11.5,77,0.00,CLR,,0.04,WeatherDisplay:10.37,2013-08-09 13:47:00,
2013-08-09 14:52:00,60.4,52.8,29.51,West,270,3.5,3.5,76,0.00,CLR,,0.04,WeatherDisplay:10.37,2013-08-09 13:52:00,
2013-08-09 14:57:00,60.4,52.8,29.51,West,270,8.1,8.1,76,0.00,CLR,,0.04,WeatherDisplay:10.37,2013-08-09 13:57:00,
2013-08-09 15:02:00,60.3,52.7,29.51,West,270,6.9,6.9,76,0.00,CLR,,0.04,WeatherDisplay:10.37,2013-08-09 14:02:00,
2013-08-09 15:07:00,60.3,52.7,29.51,West,270,5.8,8.1,76,0.00,CLR,,0.04,WeatherDisplay:10.37,2013-08-09 14:07:00,
2013-08-09 15:12:00,60.4,52.8,29.51,WSW,248,16.1,16.1,76,0.00,CLR,,0.04,WeatherDisplay:10.37,2013-08-09 14:12:00,
2013-08-09 15:17:00,60.4,52.8,29.51,SSW,202,4.6,4.6,76,0.00,CLR,,0.04,WeatherDisplay:10.37,2013-08-09 14:17:00,
2013-08-09 15:22:00,60.6,53.0,29.51,West,270,10.4,10.4,76,0.00,CLR,,0.04,WeatherDisplay:10.37,2013-08-09 14:22:00,
2013-08-09 15:27:00,60.6,53.0,29.51,SSW,202,13.8,14.3,76,0.00,CLR,,0.04,WeatherDisplay:10.37,2013-08-09 14:27:00,
2013-08-09 15:32:00,60.6,53.0,29.51,West,270,4.6,4.7,76,0.00,CLR,,0.04,WeatherDisplay:10.37,2013-08-09 14:32:00,
2013-08-09 15:37:00,60.6,53.0,29.51,West,270,8.1,8.1,76,0.00,CLR,,0.04,WeatherDisplay:10.37,2013-08-09 14:37:00,
2013-08-09 15:42:00,61.2,53.5,29.51,WSW,248,16.1,16.1,76,0.00,CLR,,0.04,WeatherDisplay:10.37,2013-08-09 14:42:00,
2013-08-09 15:47:00,61.2,53.5,29.51,SW,225,3.5,3.5,76,0.00,CLR,,0.04,WeatherDisplay:10.37,2013-08-09 14:47:00,
2013-08-09 15:52:00,61.2,53.5,29.51,West,270,9.2,9.2,76,0.00,CLR,,0.04,WeatherDisplay:10.37,2013-08-09 14:52:00,
2013-08-09 15:57:00,61.2,53.2,29.51,West,270,9.2,9.2,75,0.00,CLR,,0.04,WeatherDisplay:10.37,2013-08-09 14:57:00,
2013-08-09 16:02:00,61.2,53.2,29.51,West,270,8.1,8.1,75,0.00,CLR,,0.04,WeatherDisplay:10.37,2013-08-09 15:02:00,
2013-08-09 16:07:00,61.2,53.2,29.52,West,270,3.5,6.4,75,0.00,CLR,,0.04,WeatherDisplay:10.37,2013-08-09 15:07:00,
2013-08-09 16:12:00,61.0,53.0,29.52,SSE,158,11.5,11.5,75,0.00,CLR,,0.04,WeatherDisplay:10.37,2013-08-09 15:12:00,
2013-08-09 16:17:00,61.0,52.6,29.52,WSW,248,12.7,12.7,74,0.00,CLR,,0.04,WeatherDisplay:10.37,2013-08-09 15:17:00,
2013-08-09 16:22:00,61.0,52.6,29.52,SSW,202,3.5,3.9,74,0.00,CLR,,0.04,WeatherDisplay:10.37,2013-08-09 15:22:00,
2013-08-09 16:27:00,61.0,52.6,29.52,NW,315,9.2,9.2,74,0.00,CLR,,0.04,WeatherDisplay:10.37,2013-08-09 15:27:00,
2013-08-09 16:32:00,60.6,52.3,29.52,West,270,6.9,6.9,74,0.00,CLR,,0.04,WeatherDisplay:10.37,2013-08-09 15:32:00,
2013-08-09 16:37:00,61.0,52.6,29.52,West,270,10.4,10.4,74,0.00,CLR,,0.04,WeatherDisplay:10.37,2013-08-09 15:37:00,
2013-08-09 16:42:00,61.2,53.2,29.52,West,270,13.8,13.8,75,0.00,CLR,,0.04,WeatherDisplay:10.37,2013-08-09 15:42:00,
2013-08-09 16:47:00,61.2,53.2,29.52,WNW,292,6.9,7.3,75,0.00,CLR,,0.04,WeatherDisplay:10.37,2013-08-09 15:47:00,
2013-08-09 16:52:00,61.3,53.3,29.52,WNW,292,16.1,16.1,75,0.00,CLR,,0.04,WeatherDisplay:10.37,2013-08-09 15:52:00,
2013-08-09 16:57:00,61.2,52.8,29.52,West,270,5.8,6.7,74,0.00,CLR,,0.04,WeatherDisplay:10.37,2013-08-09 15:57:00,
2013-08-09 17:02:00,61.0,52.6,29.52,WSW,248,6.9,6.9,74,0.00,CLR,,0.04,WeatherDisplay:10.37,2013-08-09 16:02:00,
2013-08-09 17:07:00,61.0,52.6,29.52,WSW,248,5.8,6.5,74,0.00,CLR,,0.04,WeatherDisplay:10.37,2013-08-09 16:07:00,
2013-08-09 17:12:00,60.6,51.9,29.53,West,270,13.8,13.8,73,0.00,CLR,,0.04,WeatherDisplay:10.37,2013-08-09 16:12:00,
2013-08-09 17:17:00,60.6,51.9,29.53,West,270,8.1,12.8,73,0.00,CLR,,0.04,WeatherDisplay:10.37,2013-08-09 16:17:00,
2013-08-09 17:22:00,60.6,51.9,29.53,WSW,248,6.9,8.0,73,0.00,CLR,,0.04,WeatherDisplay:10.37,2013-08-09 16:22:00,
2013-08-09 17:27:00,60.4,51.7,29.53,West,270,13.8,14.1,73,0.00,CLR,,0.04,WeatherDisplay:10.37,2013-08-09 16:27:00,
2013-08-09 17:32:00,60.4,51.4,29.53,WSW,248,11.5,11.5,72,0.00,CLR,,0.04,WeatherDisplay:10.37,2013-08-09 16:32:00,
2013-08-09 17:37:00,60.3,50.8,29.53,WNW,292,15.4,15.4,71,0.00,CLR,,0.04,WeatherDisplay:10.37,2013-08-09 16:37:00,
2013-08-09 17:42:00,60.1,50.3,29.53,WNW,292,17.3,17.3,70,0.00,CLR,,0.04,WeatherDisplay:10.37,2013-08-09 16:42:00,
2013-08-09 17:47:00,60.1,50.3,29.53,West,270,10.4,10.4,70,0.00,CLR,,0.04,WeatherDisplay:10.37,2013-08-09 16:47:00,
2013-08-09 17:52:00,59.9,50.1,29.53,West,270,11.5,11.5,70,0.00,CLR,,0.04,WeatherDisplay:10.37,2013-08-09 16:52:00,
2013-08-09 17:57:00,59.9,50.1,29.53,West,270,4.6,4.6,70,0.00,CLR,,0.04,WeatherDisplay:10.37,2013-08-09 16:57:00,
2013-08-09 18:02:00,59.7,50.3,29.53,WSW,248,4.6,4.6,71,0.00,CLR,,0.04,WeatherDisplay:10.37,2013-08-09 17:02:00,
2013-08-09 18:07:00,59.7,50.3,29.54,West,270,4.6,5.0,71,0.00,CLR,,0.04,WeatherDisplay:10.37,2013-08-09 17:07:00,
2013-08-09 18:12:00,59.7,50.3,29.54,WNW,292,9.2,9.2,71,0.00,CLR,,0.04,WeatherDisplay:10.37,2013-08-09 17:12:00,
2013-08-09 18:17:00,59.7,50.3,29.54,WNW,292,5.8,5.8,71,0.00,CLR,,0.04,WeatherDisplay:10.37,2013-08-09 17:17:00,
2013-08-09 18:22:00,59.7,50.7,29.54,SW,225,4.6,4.6,72,0.00,CLR,,0.04,WeatherDisplay:10.37,2013-08-09 17:22:00,
2013-08-09 18:27:00,59.7,50.7,29.54,NNE,22,0.0,0.0,72,0.00,CLR,,0.04,WeatherDisplay:10.37,2013-08-09 17:27:00,
2013-08-09 18:32:00,59.7,50.7,29.55,WNW,292,9.2,9.2,72,0.00,CLR,,0.04,WeatherDisplay:10.37,2013-08-09 17:32:00,
2013-08-09 18:37:00,59.7,50.7,29.55,WSW,248,13.8,13.8,72,0.00,CLR,,0.04,WeatherDisplay:10.37,2013-08-09 17:37:00,
2013-08-09 18:42:00,59.5,50.5,29.55,South,180,13.8,13.8,72,0.00,CLR,,0.04,WeatherDisplay:10.37,2013-08-09 17:42:00,
2013-08-09 18:43:00,59.5,50.5,29.55,South,180,3.5,12.6,72,0.00,CLR,,0.04,WeatherDisplay:10.37,2013-08-09 17:43:00,
2013-08-09 18:48:00,59.5,50.5,29.55,SW,225,5.8,6.0,72,0.00,CLR,,0.04,WeatherDisplay:10.37,2013-08-09 17:48:00,
2013-08-09 18:53:00,59.4,50.3,29.55,WNW,292,3.5,3.5,72,0.00,CLR,,0.04,WeatherDisplay:10.37,2013-08-09 17:53:00,
2013-08-09 18:58:00,59.2,50.2,29.55,WSW,248,9.2,9.2,72,0.00,CLR,,0.04,WeatherDisplay:10.37,2013-08-09 17:58:00,
2013-08-09 19:03:00,59.2,50.2,29.55,WSW,248,4.6,4.6,72,0.00,CLR,,0.04,WeatherDisplay:10.37,2013-08-09 18:03:00,
2013-08-09 19:08:00,59.2,50.5,29.55,WSW,248,6.3,6.3,73,0.00,CLR,,0.04,WeatherDisplay:10.37,2013-08-09 18:08:00,
2013-08-09 19:13:00,59.2,50.2,29.55,WNW,292,6.9,7.8,72,0.00,CLR,,0.04,WeatherDisplay:10.37,2013-08-09 18:13:00,
2013-08-09 19:18:00,59.0,50.0,29.56,WNW,292,5.8,5.8,72,0.00,CLR,,0.04,WeatherDisplay:10.37,2013-08-09 18:18:00,
2013-08-09 19:23:00,58.8,49.8,29.56,WNW,292,5.8,5.8,72,0.00,CLR,,0.04,WeatherDisplay:10.37,2013-08-09 18:23:00,
2013-08-09 19:28:00,58.8,49.8,29.56,SW,225,5.8,5.8,72,0.00,CLR,,0.04,WeatherDisplay:10.37,2013-08-09 18:28:00,
2013-08-09 19:33:00,58.8,49.8,29.56,WNW,292,9.2,9.2,72,0.00,CLR,,0.04,WeatherDisplay:10.37,2013-08-09 18:33:00,
2013-08-09 19:38:00,58.6,49.6,29.57,SW,225,4.6,4.6,72,0.00,CLR,,0.04,WeatherDisplay:10.37,2013-08-09 18:38:00,
2013-08-09 19:43:00,58.6,49.6,29.56,WNW,292,3.5,6.6,72,0.00,CLR,,0.04,WeatherDisplay:10.37,2013-08-09 18:43:00,
2013-08-09 19:48:00,58.5,49.5,29.56,SW,225,3.5,3.7,72,0.00,CLR,,0.04,WeatherDisplay:10.37,2013-08-09 18:48:00,
2013-08-09 19:53:00,58.5,49.5,29.57,SW,225,3.5,3.5,72,0.00,CLR,,0.04,WeatherDisplay:10.37,2013-08-09 18:53:00,
2013-08-09 19:58:00,58.3,49.7,29.57,WSW,248,5.1,5.1,73,0.00,CLR,,0.04,WeatherDisplay:10.37,2013-08-09 18:58:00,
2013-08-09 20:03:00,58.3,49.7,29.57,West,270,2.3,2.3,73,0.00,CLR,,0.04,WeatherDisplay:10.37,2013-08-09 19:03:00,
2013-08-09 20:08:00,58.1,49.5,29.57,SW,225,12.1,12.1,73,0.00,CLR,,0.04,WeatherDisplay:10.37,2013-08-09 19:08:00,
2013-08-09 20:13:00,58.1,49.5,29.57,SW,225,3.5,3.5,73,0.00,CLR,,0.04,WeatherDisplay:10.37,2013-08-09 19:13:00,
2013-08-09 20:18:00,57.9,48.9,29.57,SW,225,9.6,9.6,72,0.00,CLR,,0.04,WeatherDisplay:10.37,2013-08-09 19:18:00,
2013-08-09 20:23:00,57.9,48.9,29.57,West,270,4.6,4.6,72,0.00,CLR,,0.04,WeatherDisplay:10.37,2013-08-09 19:23:00,
2013-08-09 20:28:00,57.9,48.9,29.58,SW,225,7.4,7.4,72,0.00,CLR,,0.04,WeatherDisplay:10.37,2013-08-09 19:28:00,
2013-08-09 20:33:00,57.7,48.8,29.58,NW,315,3.5,3.8,72,0.00,CLR,,0.04,WeatherDisplay:10.37,2013-08-09 19:33:00,
2013-08-09 20:38:00,57.6,49.0,29.58,West,270,4.6,4.6,73,0.00,CLR,,0.04,WeatherDisplay:10.37,2013-08-09 19:38:00,
2013-08-09 20:43:00,57.6,49.0,29.58,West,270,2.3,2.3,73,0.00,CLR,,0.04,WeatherDisplay:10.37,2013-08-09 19:43:00,
2013-08-09 20:48:00,57.4,48.8,29.58,West,270,1.2,1.4,73,0.00,CLR,,0.04,WeatherDisplay:10.37,2013-08-09 19:48:00,
2013-08-09 20:53:00,57.4,48.8,29.59,West,270,5.8,5.9,73,0.00,CLR,,0.04,WeatherDisplay:10.37,2013-08-09 19:53:00,
2013-08-09 20:58:00,57.2,48.6,29.59,SW,225,3.5,3.5,73,0.00,CLR,,0.04,WeatherDisplay:10.37,2013-08-09 19:58:00,
2013-08-09 21:03:00,57.0,48.8,29.59,West,270,3.5,3.5,74,0.00,CLR,,0.04,WeatherDisplay:10.37,2013-08-09 20:03:00,
2013-08-09 21:08:00,57.0,48.8,29.59,WNW,292,2.3,2.4,74,0.00,CLR,,0.04,WeatherDisplay:10.37,2013-08-09 20:08:00,
2013-08-09 21:13:00,56.8,48.6,29.59,WSW,248,3.5,4.6,74,0.00,CLR,,0.04,WeatherDisplay:10.37,2013-08-09 20:13:00,
2013-08-09 21:18:00,56.8,48.6,29.59,SSW,202,5.8,5.8,74,0.00,CLR,,0.04,WeatherDisplay:10.37,2013-08-09 20:18:00,
2013-08-09 21:23:00,56.8,48.6,29.59,WNW,292,4.6,4.6,74,0.00,CLR,,0.04,WeatherDisplay:10.37,2013-08-09 20:23:00,
2013-08-09 21:28:00,56.5,48.3,29.59,West,270,4.6,4.6,74,0.00,CLR,,0.04,WeatherDisplay:10.37,2013-08-09 20:28:00,
2013-08-09 21:33:00,56.5,48.3,29.59,WSW,248,2.3,3.9,74,0.00,CLR,,0.04,WeatherDisplay:10.37,2013-08-09 20:33:00,
2013-08-09 21:38:00,56.3,48.1,29.59,West,270,3.5,3.5,74,0.00,CLR,,0.04,WeatherDisplay:10.37,2013-08-09 20:38:00,
2013-08-09 21:43:00,56.1,47.9,29.59,WSW,248,2.3,2.3,74,0.00,CLR,,0.04,WeatherDisplay:10.37,2013-08-09 20:43:00,
2013-08-09 21:48:00,56.1,47.9,29.59,SW,225,2.3,2.5,74,0.00,CLR,,0.04,WeatherDisplay:10.37,2013-08-09 20:48:00,
2013-08-09 21:53:00,55.9,48.1,29.60,WSW,248,1.2,1.2,75,0.00,CLR,,0.04,WeatherDisplay:10.37,2013-08-09 20:53:00,
2013-08-09 21:58:00,55.9,48.1,29.60,SW,225,1.2,1.7,75,0.00,CLR,,0.04,WeatherDisplay:10.37,2013-08-09 20:58:00,
2013-08-09 22:03:00,55.9,48.1,29.60,SW,225,3.5,3.5,75,0.00,CLR,,0.04,WeatherDisplay:10.37,2013-08-09 21:03:00,
2013-08-09 22:08:00,55.9,48.1,29.60,WSW,248,3.5,3.5,75,0.00,CLR,,0.04,WeatherDisplay:10.37,2013-08-09 21:08:00,
2013-08-09 22:13:00,55.6,47.8,29.60,SSW,202,2.3,3.6,75,0.00,CLR,,0.04,WeatherDisplay:10.37,2013-08-09 21:13:00,
2013-08-09 22:18:00,55.6,48.1,29.60,SW,225,3.5,3.5,76,0.00,CLR,,0.04,WeatherDisplay:10.37,2013-08-09 21:18:00,
2013-08-09 22:23:00,55.4,48.0,29.60,WSW,248,2.3,2.3,76,0.00,CLR,,0.04,WeatherDisplay:10.37,2013-08-09 21:23:00,
2013-08-09 22:28:00,55.4,48.0,29.60,WSW,248,3.5,3.5,76,0.00,CLR,,0.04,WeatherDisplay:10.37,2013-08-09 21:28:00,
2013-08-09 22:33:00,55.4,48.3,29.60,West,270,3.5,3.5,77,0.00,CLR,,0.04,WeatherDisplay:10.37,2013-08-09 21:33:00,
2013-08-09 22:38:00,55.4,48.3,29.60,West,270,3.5,3.5,77,0.00,CLR,,0.04,WeatherDisplay:10.37,2013-08-09 21:38:00,
2013-08-09 22:43:00,55.2,48.1,29.60,WSW,248,2.3,3.0,77,0.00,CLR,,0.04,WeatherDisplay:10.37,2013-08-09 21:43:00,
2013-08-09 22:48:00,55.2,48.1,29.60,WSW,248,3.5,3.5,77,0.00,CLR,,0.04,WeatherDisplay:10.37,2013-08-09 21:48:00,
2013-08-09 22:53:00,55.2,48.1,29.60,WSW,248,2.3,2.7,77,0.00,CLR,,0.04,WeatherDisplay:10.37,2013-08-09 21:53:00,
2013-08-09 22:58:00,55.2,48.1,29.61,WSW,248,1.2,1.8,77,0.00,CLR,,0.04,WeatherDisplay:10.37,2013-08-09 21:58:00,
2013-08-09 23:03:00,55.2,48.1,29.60,West,270,3.5,3.5,77,0.00,CLR,,0.04,WeatherDisplay:10.37,2013-08-09 22:03:00,
2013-08-09 23:08:00,55.2,48.1,29.60,SW,225,5.8,5.8,77,0.00,CLR,,0.04,WeatherDisplay:10.37,2013-08-09 22:08:00,
2013-08-09 23:13:00,55.2,48.1,29.60,WSW,248,2.3,3.2,77,0.00,CLR,,0.04,WeatherDisplay:10.37,2013-08-09 22:13:00,
2013-08-09 23:18:00,55.0,48.0,29.60,West,270,2.3,2.3,77,0.00,CLR,,0.04,WeatherDisplay:10.37,2013-08-09 22:18:00,
2013-08-09 23:23:00,55.0,48.0,29.60,WSW,248,1.2,1.2,77,0.00,CLR,,0.04,WeatherDisplay:10.37,2013-08-09 22:23:00,
2013-08-09 23:28:00,55.0,48.0,29.60,West,270,0.0,0.0,77,0.00,CLR,,0.04,WeatherDisplay:10.37,2013-08-09 22:28:00,
2013-08-09 23:33:00,54.9,47.8,29.60,West,270,1.2,1.9,77,0.00,CLR,,0.04,WeatherDisplay:10.37,2013-08-09 22:33:00,
2013-08-09 23:38:00,54.9,47.8,29.60,West,270,2.3,2.3,77,0.00,CLR,,0.04,WeatherDisplay:10.37,2013-08-09 22:38:00,
2013-08-09 23:43:00,54.7,47.6,29.60,West,270,2.3,2.3,77,0.00,CLR,,0.04,WeatherDisplay:10.37,2013-08-09 22:43:00,
2013-08-09 23:48:00,54.7,48.0,29.61,WSW,248,4.6,4.6,78,0.00,CLR,,0.04,WeatherDisplay:10.37,2013-08-09 22:48:00,
2013-08-09 23:53:00,54.7,48.0,29.60,SSW,202,1.2,1.2,78,0.00,CLR,,0.04,WeatherDisplay:10.37,2013-08-09 22:53:00,
2013-08-09 23:58:00,54.7,48.0,29.61,South,180,2.3,2.3,78,0.00,CLR,,0.04,WeatherDisplay:10.37,2013-08-09 22:58:00,